sensor_id;sensor_type;location;lat;lon;timestamp;pressure;altitude;pressure_sealevel;temperature;humidity
55610;BME280;41486;52.502;13.486;2023-03-19T00:00:45;100813.91;;;9.50;95.66
55610;BME280;41486;52.502;13.486;2023-03-19T00:03:13;100809.31;;;9.40;95.07
55610;BME280;41486;52.502;13.486;2023-03-19T00:05:49;100814.75;;;9.50;93.82
55610;BME280;41486;52.502;13.486;2023-03-19T00:08:17;100803.13;;;9.41;92.69
55610;BME280;41486;52.502;13.486;2023-03-19T00:10:45;100797.53;;;9.33;93.01
55610;BME280;41486;52.502;13.486;2023-03-19T00:13:13;100801.13;;;9.32;93.04
55610;BME280;41486;52.502;13.486;2023-03-19T00:15:41;100799.50;;;9.29;93.50
55610;BME280;41486;52.502;13.486;2023-03-19T00:18:10;100802.06;;;9.44;92.57
55610;BME280;41486;52.502;13.486;2023-03-19T00:20:38;100801.19;;;9.43;91.72
55610;BME280;41486;52.502;13.486;2023-03-19T00:23:06;100805.31;;;9.35;91.25
55610;BME280;41486;52.502;13.486;2023-03-19T00:25:34;100796.38;;;9.24;91.32
55610;BME280;41486;52.502;13.486;2023-03-19T00:28:03;100806.25;;;9.34;91.10
55610;BME280;41486;52.502;13.486;2023-03-19T00:30:31;100805.44;;;9.33;90.85
55610;BME280;41486;52.502;13.486;2023-03-19T00:32:59;100803.50;;;9.09;90.19
55610;BME280;41486;52.502;13.486;2023-03-19T00:35:29;100798.56;;;9.18;89.62
55610;BME280;41486;52.502;13.486;2023-03-19T00:37:57;100788.28;;;9.27;88.05
55610;BME280;41486;52.502;13.486;2023-03-19T00:40:25;100793.88;;;9.23;88.68
55610;BME280;41486;52.502;13.486;2023-03-19T00:42:53;100794.50;;;9.26;88.11
55610;BME280;41486;52.502;13.486;2023-03-19T00:45:21;100789.75;;;9.19;87.79
55610;BME280;41486;52.502;13.486;2023-03-19T00:47:49;100797.84;;;9.03;88.43
55610;BME280;41486;52.502;13.486;2023-03-19T00:50:18;100792.47;;;9.04;87.55
55610;BME280;41486;52.502;13.486;2023-03-19T00:52:47;100788.38;;;8.87;87.87
55610;BME280;41486;52.502;13.486;2023-03-19T00:55:16;100789.94;;;8.90;87.76
55610;BME280;41486;52.502;13.486;2023-03-19T00:57:44;100798.22;;;8.71;88.82
55610;BME280;41486;52.502;13.486;2023-03-19T01:00:13;100807.94;;;8.68;89.90
55610;BME280;41486;52.502;13.486;2023-03-19T01:02:44;100808.19;;;8.78;88.71
55610;BME280;41486;52.502;13.486;2023-03-19T01:05:12;100804.69;;;8.65;89.56
55610;BME280;41486;52.502;13.486;2023-03-19T01:07:40;100809.06;;;8.51;90.04
55610;BME280;41486;52.502;13.486;2023-03-19T01:10:10;100809.75;;;8.41;91.21
55610;BME280;41486;52.502;13.486;2023-03-19T01:12:38;100809.75;;;8.41;92.83
55610;BME280;41486;52.502;13.486;2023-03-19T01:15:07;100807.28;;;8.52;91.75
55610;BME280;41486;52.502;13.486;2023-03-19T01:17:35;100806.41;;;8.79;89.98
55610;BME280;41486;52.502;13.486;2023-03-19T01:20:04;100811.50;;;8.67;90.14
55610;BME280;41486;52.502;13.486;2023-03-19T01:22:38;100813.72;;;8.46;90.90
55610;BME280;41486;52.502;13.486;2023-03-19T01:25:10;100814.53;;;8.61;90.62
55610;BME280;41486;52.502;13.486;2023-03-19T01:27:41;100816.78;;;8.80;88.50
55610;BME280;41486;52.502;13.486;2023-03-19T01:30:10;100814.06;;;8.69;89.25
55610;BME280;41486;52.502;13.486;2023-03-19T01:33:04;100805.50;;;8.52;88.95
55610;BME280;41486;52.502;13.486;2023-03-19T01:35:40;100805.31;;;8.41;89.29
55610;BME280;41486;52.502;13.486;2023-03-19T01:38:09;100809.75;;;8.41;89.54
55610;BME280;41486;52.502;13.486;2023-03-19T01:40:44;100808.78;;;8.56;88.32
55610;BME280;41486;52.502;13.486;2023-03-19T01:43:16;100820.59;;;8.76;86.60
55610;BME280;41486;52.502;13.486;2023-03-19T01:46:06;100809.41;;;8.60;87.66
55610;BME280;41486;52.502;13.486;2023-03-19T01:49:00;100817.28;;;8.60;86.26
55610;BME280;41486;52.502;13.486;2023-03-19T01:51:32;100812.22;;;8.57;87.06
55610;BME280;41486;52.502;13.486;2023-03-19T01:54:09;100809.59;;;8.57;85.83
55610;BME280;41486;52.502;13.486;2023-03-19T01:57:02;100818.66;;;8.24;87.86
55610;BME280;41486;52.502;13.486;2023-03-19T01:59:53;100825.00;;;8.07;89.69
55610;BME280;41486;52.502;13.486;2023-03-19T02:02:30;100818.88;;;8.20;89.71
55610;BME280;41486;52.502;13.486;2023-03-19T02:05:09;100812.78;;;8.20;88.62
55610;BME280;41486;52.502;13.486;2023-03-19T02:07:38;100812.03;;;8.45;87.19
55610;BME280;41486;52.502;13.486;2023-03-19T02:10:11;100811.66;;;8.24;87.96
55610;BME280;41486;52.502;13.486;2023-03-19T02:12:43;100813.94;;;8.16;88.85
55610;BME280;41486;52.502;13.486;2023-03-19T02:15:12;100809.63;;;8.15;88.56
55610;BME280;41486;52.502;13.486;2023-03-19T02:17:40;100811.94;;;8.19;89.04
55610;BME280;41486;52.502;13.486;2023-03-19T02:20:15;100803.22;;;8.19;88.25
55610;BME280;41486;52.502;13.486;2023-03-19T02:22:49;100803.09;;;8.08;88.66
55610;BME280;41486;52.502;13.486;2023-03-19T02:25:26;100803.16;;;8.06;89.37
55610;BME280;41486;52.502;13.486;2023-03-19T02:27:56;100802.34;;;8.33;87.79
55610;BME280;41486;52.502;13.486;2023-03-19T02:30:26;100802.50;;;8.17;88.64
55610;BME280;41486;52.502;13.486;2023-03-19T02:32:56;100807.13;;;7.99;90.86
55610;BME280;41486;52.502;13.486;2023-03-19T02:35:25;100803.91;;;8.08;90.83
55610;BME280;41486;52.502;13.486;2023-03-19T02:37:53;100798.97;;;8.03;91.96
55610;BME280;41486;52.502;13.486;2023-03-19T02:40:23;100801.78;;;8.00;91.09
55610;BME280;41486;52.502;13.486;2023-03-19T02:42:53;100804.41;;;7.86;92.92
55610;BME280;41486;52.502;13.486;2023-03-19T02:45:27;100797.88;;;7.79;93.33
55610;BME280;41486;52.502;13.486;2023-03-19T02:47:55;100806.28;;;7.98;92.82
55610;BME280;41486;52.502;13.486;2023-03-19T02:50:23;100801.22;;;7.95;91.00
55610;BME280;41486;52.502;13.486;2023-03-19T02:52:51;100801.19;;;8.10;89.17
55610;BME280;41486;52.502;13.486;2023-03-19T02:55:19;100801.16;;;7.82;91.60
55610;BME280;41486;52.502;13.486;2023-03-19T02:57:47;100797.28;;;8.30;89.97
55610;BME280;41486;52.502;13.486;2023-03-19T03:00:16;100798.16;;;8.30;88.92
55610;BME280;41486;52.502;13.486;2023-03-19T03:02:47;100799.59;;;8.07;90.34
55610;BME280;41486;52.502;13.486;2023-03-19T03:05:15;100803.34;;;8.17;90.15
55610;BME280;41486;52.502;13.486;2023-03-19T03:07:44;100798.19;;;8.16;89.48
55610;BME280;41486;52.502;13.486;2023-03-19T03:10:12;100797.56;;;8.12;89.76
55610;BME280;41486;52.502;13.486;2023-03-19T03:12:40;100802.44;;;8.04;89.91
55610;BME280;41486;52.502;13.486;2023-03-19T03:15:09;100801.59;;;8.03;89.74
55610;BME280;41486;52.502;13.486;2023-03-19T03:17:39;100796.66;;;7.84;90.24
55610;BME280;41486;52.502;13.486;2023-03-19T03:20:11;100806.19;;;8.27;88.88
55610;BME280;41486;52.502;13.486;2023-03-19T03:22:40;100803.56;;;8.00;89.40
55610;BME280;41486;52.502;13.486;2023-03-19T03:25:09;100795.00;;;8.11;90.08
55610;BME280;41486;52.502;13.486;2023-03-19T03:27:37;100795.97;;;7.95;90.45
55610;BME280;41486;52.502;13.486;2023-03-19T03:30:08;100796.59;;;8.13;89.77
55610;BME280;41486;52.502;13.486;2023-03-19T03:32:37;100790.50;;;7.85;90.53
55610;BME280;41486;52.502;13.486;2023-03-19T03:35:06;100811.28;;;7.88;90.15
55610;BME280;41486;52.502;13.486;2023-03-19T03:37:35;100808.72;;;7.87;90.35
55610;BME280;41486;52.502;13.486;2023-03-19T03:40:06;100810.69;;;7.83;89.63
55610;BME280;41486;52.502;13.486;2023-03-19T03:42:35;100800.03;;;7.86;89.03
55610;BME280;41486;52.502;13.486;2023-03-19T03:45:07;100814.75;;;7.74;89.59
55610;BME280;41486;52.502;13.486;2023-03-19T03:47:36;100816.41;;;7.61;91.66
55610;BME280;41486;52.502;13.486;2023-03-19T03:50:06;100835.22;;;7.53;91.99
55610;BME280;41486;52.502;13.486;2023-03-19T03:52:39;100850.19;;;7.51;92.13
55610;BME280;41486;52.502;13.486;2023-03-19T03:55:08;100840.94;;;7.60;92.16
55610;BME280;41486;52.502;13.486;2023-03-19T03:57:36;100833.53;;;7.52;93.38
55610;BME280;41486;52.502;13.486;2023-03-19T04:00:05;100852.41;;;7.43;93.84
55610;BME280;41486;52.502;13.486;2023-03-19T04:02:39;100851.97;;;7.51;95.31
55610;BME280;41486;52.502;13.486;2023-03-19T04:05:11;100846.44;;;7.41;95.35
55610;BME280;41486;52.502;13.486;2023-03-19T04:07:40;100848.19;;;7.26;96.88
55610;BME280;41486;52.502;13.486;2023-03-19T04:10:09;100858.47;;;7.29;97.96
55610;BME280;41486;52.502;13.486;2023-03-19T04:12:38;100847.94;;;7.31;98.16
55610;BME280;41486;52.502;13.486;2023-03-19T04:15:09;100840.72;;;7.34;98.17
55610;BME280;41486;52.502;13.486;2023-03-19T04:17:40;100871.91;;;7.23;97.80
55610;BME280;41486;52.502;13.486;2023-03-19T04:20:09;100848.47;;;7.21;99.51
55610;BME280;41486;52.502;13.486;2023-03-19T04:22:38;100862.69;;;7.32;98.13
55610;BME280;41486;52.502;13.486;2023-03-19T04:25:08;100856.72;;;7.30;97.67
55610;BME280;41486;52.502;13.486;2023-03-19T04:27:37;100871.47;;;7.31;97.60
55610;BME280;41486;52.502;13.486;2023-03-19T04:30:08;100859.88;;;7.35;98.00
55610;BME280;41486;52.502;13.486;2023-03-19T04:32:37;100877.00;;;7.26;99.15
55610;BME280;41486;52.502;13.486;2023-03-19T04:35:05;100868.94;;;7.29;98.85
55610;BME280;41486;52.502;13.486;2023-03-19T04:37:33;100867.09;;;7.46;97.16
55610;BME280;41486;52.502;13.486;2023-03-19T04:40:02;100876.72;;;7.31;96.68
55610;BME280;41486;52.502;13.486;2023-03-19T04:42:34;100876.53;;;7.34;97.94
55610;BME280;41486;52.502;13.486;2023-03-19T04:45:07;100884.47;;;7.32;96.63
55610;BME280;41486;52.502;13.486;2023-03-19T04:47:36;100882.25;;;7.40;96.91
55610;BME280;41486;52.502;13.486;2023-03-19T04:50:05;100879.38;;;7.60;95.33
55610;BME280;41486;52.502;13.486;2023-03-19T04:52:34;100880.56;;;7.54;95.21
55610;BME280;41486;52.502;13.486;2023-03-19T04:55:04;100869.25;;;7.39;96.14
55610;BME280;41486;52.502;13.486;2023-03-19T04:57:44;100865.22;;;7.48;94.06
55610;BME280;41486;52.502;13.486;2023-03-19T05:00:13;100871.13;;;7.37;95.27
55610;BME280;41486;52.502;13.486;2023-03-19T05:02:43;100871.47;;;7.31;96.84
55610;BME280;41486;52.502;13.486;2023-03-19T05:05:12;100886.25;;;7.32;99.06
55610;BME280;41486;52.502;13.486;2023-03-19T05:07:40;100876.63;;;7.47;98.83
55610;BME280;41486;52.502;13.486;2023-03-19T05:10:10;100877.00;;;7.40;100.00
55610;BME280;41486;52.502;13.486;2023-03-19T05:12:38;100880.28;;;7.44;97.95
55610;BME280;41486;52.502;13.486;2023-03-19T05:15:09;100884.38;;;7.34;96.55
55610;BME280;41486;52.502;13.486;2023-03-19T05:17:44;100869.81;;;7.44;99.71
55610;BME280;41486;52.502;13.486;2023-03-19T05:20:16;100871.13;;;7.51;100.00
55610;BME280;41486;52.502;13.486;2023-03-19T05:22:51;100874.88;;;7.33;100.00
55610;BME280;41486;52.502;13.486;2023-03-19T05:25:23;100874.66;;;7.36;100.00
55610;BME280;41486;52.502;13.486;2023-03-19T05:27:52;100859.69;;;7.23;100.00
55610;BME280;41486;52.502;13.486;2023-03-19T05:30:24;100867.31;;;7.57;100.00
55610;BME280;41486;52.502;13.486;2023-03-19T05:33:19;100851.22;;;7.49;100.00
55610;BME280;41486;52.502;13.486;2023-03-19T05:35:49;100841.00;;;7.44;100.00
55610;BME280;41486;52.502;13.486;2023-03-19T05:38:23;100850.72;;;7.42;100.00
55610;BME280;41486;52.502;13.486;2023-03-19T05:41:02;100846.69;;;7.22;100.00
55610;BME280;41486;52.502;13.486;2023-03-19T05:43:40;100848.31;;;7.39;100.00
55610;BME280;41486;52.502;13.486;2023-03-19T05:46:17;100833.72;;;7.49;100.00
55610;BME280;41486;52.502;13.486;2023-03-19T05:48:45;100830.63;;;7.42;100.00
55610;BME280;41486;52.502;13.486;2023-03-19T05:51:14;100837.56;;;7.58;100.00
55610;BME280;41486;52.502;13.486;2023-03-19T05:53:44;100833.47;;;7.68;100.00
55610;BME280;41486;52.502;13.486;2023-03-19T05:56:33;100834.56;;;7.64;100.00
55610;BME280;41486;52.502;13.486;2023-03-19T05:59:21;100825.31;;;7.73;100.00
55610;BME280;41486;52.502;13.486;2023-03-19T06:02:07;100822.69;;;7.58;100.00
55610;BME280;41486;52.502;13.486;2023-03-19T06:04:36;100829.06;;;7.69;100.00
55610;BME280;41486;52.502;13.486;2023-03-19T06:07:05;100839.69;;;7.66;100.00
55610;BME280;41486;52.502;13.486;2023-03-19T06:09:34;100833.31;;;7.99;100.00
55610;BME280;41486;52.502;13.486;2023-03-19T06:12:09;100831.38;;;7.88;100.00
55610;BME280;41486;52.502;13.486;2023-03-19T06:14:55;100831.00;;;7.65;100.00
55610;BME280;41486;52.502;13.486;2023-03-19T06:17:43;100837.94;;;7.52;100.00
55610;BME280;41486;52.502;13.486;2023-03-19T06:20:15;100843.84;;;7.55;100.00
55610;BME280;41486;52.502;13.486;2023-03-19T06:22:44;100851.41;;;7.60;100.00
55610;BME280;41486;52.502;13.486;2023-03-19T06:25:12;100843.56;;;7.60;100.00
55610;BME280;41486;52.502;13.486;2023-03-19T06:27:41;100845.16;;;7.63;100.00
55610;BME280;41486;52.502;13.486;2023-03-19T06:30:21;100854.59;;;7.80;100.00
55610;BME280;41486;52.502;13.486;2023-03-19T06:32:50;100859.53;;;7.84;100.00
55610;BME280;41486;52.502;13.486;2023-03-19T06:35:18;100862.91;;;7.86;100.00
55610;BME280;41486;52.502;13.486;2023-03-19T06:37:48;100867.59;;;7.96;100.00
55610;BME280;41486;52.502;13.486;2023-03-19T06:40:16;100871.16;;;7.95;100.00
55610;BME280;41486;52.502;13.486;2023-03-19T06:42:44;100862.06;;;8.00;100.00
55610;BME280;41486;52.502;13.486;2023-03-19T06:45:14;100858.78;;;8.11;100.00
55610;BME280;41486;52.502;13.486;2023-03-19T06:47:45;100876.91;;;8.14;100.00
55610;BME280;41486;52.502;13.486;2023-03-19T06:50:17;100877.97;;;8.12;100.00
55610;BME280;41486;52.502;13.486;2023-03-19T06:52:46;100877.31;;;8.08;100.00
55610;BME280;41486;52.502;13.486;2023-03-19T06:55:14;100888.53;;;8.10;100.00
55610;BME280;41486;52.502;13.486;2023-03-19T06:57:47;100899.50;;;8.17;100.00
55610;BME280;41486;52.502;13.486;2023-03-19T07:00:16;100921.53;;;8.42;100.00
55610;BME280;41486;52.502;13.486;2023-03-19T07:02:44;100946.47;;;8.20;100.00
55610;BME280;41486;52.502;13.486;2023-03-19T07:05:13;100956.13;;;8.19;100.00
55610;BME280;41486;52.502;13.486;2023-03-19T07:07:42;100962.47;;;8.30;100.00
55610;BME280;41486;52.502;13.486;2023-03-19T07:10:10;100968.28;;;8.64;100.00
55610;BME280;41486;52.502;13.486;2023-03-19T07:12:38;100972.47;;;8.81;100.00
55610;BME280;41486;52.502;13.486;2023-03-19T07:15:07;100997.28;;;8.90;100.00
55610;BME280;41486;52.502;13.486;2023-03-19T07:17:35;101003.75;;;8.84;100.00
55610;BME280;41486;52.502;13.486;2023-03-19T07:20:03;101005.22;;;9.03;100.00
55610;BME280;41486;52.502;13.486;2023-03-19T07:22:32;101008.19;;;8.55;100.00
55610;BME280;41486;52.502;13.486;2023-03-19T07:25:01;101005.78;;;8.51;100.00
55610;BME280;41486;52.502;13.486;2023-03-19T07:27:29;101005.34;;;8.87;100.00
55610;BME280;41486;52.502;13.486;2023-03-19T07:29:57;101006.03;;;9.03;100.00
55610;BME280;41486;52.502;13.486;2023-03-19T07:32:25;100998.03;;;8.92;100.00
55610;BME280;41486;52.502;13.486;2023-03-19T07:34:53;100996.13;;;9.08;100.00
55610;BME280;41486;52.502;13.486;2023-03-19T07:37:21;100976.81;;;8.95;100.00
55610;BME280;41486;52.502;13.486;2023-03-19T07:39:49;100967.41;;;9.05;100.00
55610;BME280;41486;52.502;13.486;2023-03-19T07:42:18;100974.06;;;8.83;100.00
55610;BME280;41486;52.502;13.486;2023-03-19T07:44:46;100973.38;;;8.94;100.00
55610;BME280;41486;52.502;13.486;2023-03-19T07:47:14;100957.59;;;9.22;100.00
55610;BME280;41486;52.502;13.486;2023-03-19T07:49:55;100949.56;;;9.10;100.00
55610;BME280;41486;52.502;13.486;2023-03-19T07:52:23;100933.88;;;9.36;100.00
55610;BME280;41486;52.502;13.486;2023-03-19T07:54:51;100929.94;;;9.56;100.00
55610;BME280;41486;52.502;13.486;2023-03-19T07:57:20;100925.13;;;9.76;100.00
55610;BME280;41486;52.502;13.486;2023-03-19T07:59:48;100925.19;;;10.00;100.00
55610;BME280;41486;52.502;13.486;2023-03-19T08:02:16;100918.88;;;9.90;100.00
55610;BME280;41486;52.502;13.486;2023-03-19T08:04:48;100923.19;;;9.91;100.00
55610;BME280;41486;52.502;13.486;2023-03-19T08:07:16;100927.38;;;10.06;100.00
55610;BME280;41486;52.502;13.486;2023-03-19T08:09:45;100931.06;;;10.17;100.00
55610;BME280;41486;52.502;13.486;2023-03-19T08:12:14;100942.97;;;9.97;100.00
55610;BME280;41486;52.502;13.486;2023-03-19T08:14:43;100944.41;;;10.14;100.00
55610;BME280;41486;52.502;13.486;2023-03-19T08:17:11;100936.63;;;10.25;100.00
55610;BME280;41486;52.502;13.486;2023-03-19T08:19:39;100945.03;;;10.30;100.00
55610;BME280;41486;52.502;13.486;2023-03-19T08:22:08;100944.91;;;10.57;100.00
55610;BME280;41486;52.502;13.486;2023-03-19T08:24:36;100938.69;;;10.58;100.00
55610;BME280;41486;52.502;13.486;2023-03-19T08:27:04;100940.56;;;10.69;100.00
55610;BME280;41486;52.502;13.486;2023-03-19T08:29:32;100954.66;;;10.68;100.00
55610;BME280;41486;52.502;13.486;2023-03-19T08:32:01;100953.47;;;10.72;100.00
55610;BME280;41486;52.502;13.486;2023-03-19T08:34:29;100956.06;;;10.61;100.00
55610;BME280;41486;52.502;13.486;2023-03-19T08:36:57;100978.38;;;10.55;100.00
55610;BME280;41486;52.502;13.486;2023-03-19T08:39:25;100995.13;;;10.54;100.00
55610;BME280;41486;52.502;13.486;2023-03-19T08:41:54;101013.22;;;10.33;100.00
55610;BME280;41486;52.502;13.486;2023-03-19T08:44:23;101038.69;;;10.33;100.00
55610;BME280;41486;52.502;13.486;2023-03-19T08:46:51;101042.97;;;10.34;100.00
55610;BME280;41486;52.502;13.486;2023-03-19T08:49:20;101034.59;;;10.41;100.00
55610;BME280;41486;52.502;13.486;2023-03-19T08:51:48;101050.69;;;10.37;100.00
55610;BME280;41486;52.502;13.486;2023-03-19T08:54:18;101050.59;;;10.38;100.00
55610;BME280;41486;52.502;13.486;2023-03-19T08:56:48;101051.94;;;10.05;100.00
55610;BME280;41486;52.502;13.486;2023-03-19T08:59:17;101061.25;;;9.84;100.00
55610;BME280;41486;52.502;13.486;2023-03-19T09:01:45;101044.53;;;9.85;100.00
55610;BME280;41486;52.502;13.486;2023-03-19T09:04:13;101047.09;;;9.59;100.00
55610;BME280;41486;52.502;13.486;2023-03-19T09:06:43;101045.69;;;9.68;100.00
55610;BME280;41486;52.502;13.486;2023-03-19T09:09:11;101045.75;;;9.66;100.00
55610;BME280;41486;52.502;13.486;2023-03-19T09:11:39;101026.13;;;9.31;100.00
55610;BME280;41486;52.502;13.486;2023-03-19T09:14:07;101013.50;;;9.24;100.00
55610;BME280;41486;52.502;13.486;2023-03-19T09:16:37;100982.59;;;9.55;100.00
55610;BME280;41486;52.502;13.486;2023-03-19T09:19:05;100967.66;;;9.68;100.00
55610;BME280;41486;52.502;13.486;2023-03-19T09:21:33;100957.03;;;9.70;100.00
55610;BME280;41486;52.502;13.486;2023-03-19T09:24:03;100950.84;;;9.45;100.00
55610;BME280;41486;52.502;13.486;2023-03-19T09:26:31;100943.59;;;9.49;100.00
55610;BME280;41486;52.502;13.486;2023-03-19T09:29:00;100935.78;;;9.21;100.00
55610;BME280;41486;52.502;13.486;2023-03-19T09:31:29;100930.94;;;9.28;100.00
55610;BME280;41486;52.502;13.486;2023-03-19T09:33:57;100937.91;;;9.42;100.00
55610;BME280;41486;52.502;13.486;2023-03-19T09:36:25;100943.34;;;9.39;100.00
55610;BME280;41486;52.502;13.486;2023-03-19T09:38:53;100944.44;;;9.09;100.00
55610;BME280;41486;52.502;13.486;2023-03-19T09:41:28;100950.84;;;9.05;100.00
55610;BME280;41486;52.502;13.486;2023-03-19T09:44:00;100941.44;;;9.28;100.00
55610;BME280;41486;52.502;13.486;2023-03-19T09:46:36;100950.63;;;9.48;100.00
55610;BME280;41486;52.502;13.486;2023-03-19T09:49:11;100954.94;;;9.62;100.00
55610;BME280;41486;52.502;13.486;2023-03-19T09:51:44;100954.19;;;9.47;100.00
55610;BME280;41486;52.502;13.486;2023-03-19T09:54:31;100943.50;;;9.76;100.00
55610;BME280;41486;52.502;13.486;2023-03-19T09:57:01;100936.84;;;9.44;100.00
55610;BME280;41486;52.502;13.486;2023-03-19T09:59:30;100930.31;;;9.37;100.00
55610;BME280;41486;52.502;13.486;2023-03-19T10:02:12;100932.19;;;9.35;100.00
55610;BME280;41486;52.502;13.486;2023-03-19T10:05:02;100938.41;;;9.47;100.00
55610;BME280;41486;52.502;13.486;2023-03-19T10:07:49;100940.03;;;9.75;100.00
55610;BME280;41486;52.502;13.486;2023-03-19T10:10:47;100941.09;;;9.99;100.00
55610;BME280;41486;52.502;13.486;2023-03-19T10:13:27;100946.66;;;10.07;100.00
55610;BME280;41486;52.502;13.486;2023-03-19T10:15:58;100935.38;;;10.18;100.00
55610;BME280;41486;52.502;13.486;2023-03-19T10:18:30;100936.88;;;10.09;100.00
55610;BME280;41486;52.502;13.486;2023-03-19T10:21:03;100943.78;;;10.10;100.00
55610;BME280;41486;52.502;13.486;2023-03-19T10:23:38;100943.16;;;10.19;100.00
55610;BME280;41486;52.502;13.486;2023-03-19T10:26:09;100946.94;;;10.28;100.00
55610;BME280;41486;52.502;13.486;2023-03-19T10:28:42;100946.09;;;10.27;100.00
55610;BME280;41486;52.502;13.486;2023-03-19T10:31:24;100947.34;;;10.35;100.00
55610;BME280;41486;52.502;13.486;2023-03-19T10:34:04;100948.00;;;10.38;100.00
55610;BME280;41486;52.502;13.486;2023-03-19T10:36:37;100948.84;;;10.39;100.00
55610;BME280;41486;52.502;13.486;2023-03-19T10:39:06;100959.38;;;10.39;100.00
55610;BME280;41486;52.502;13.486;2023-03-19T10:41:42;100948.28;;;10.47;100.00
55610;BME280;41486;52.502;13.486;2023-03-19T10:44:26;100945.13;;;10.54;100.00
55610;BME280;41486;52.502;13.486;2023-03-19T10:46:59;100948.66;;;10.66;100.00
55610;BME280;41486;52.502;13.486;2023-03-19T10:49:35;100946.47;;;10.84;100.00
55610;BME280;41486;52.502;13.486;2023-03-19T10:52:12;100950.91;;;10.84;100.00
55610;BME280;41486;52.502;13.486;2023-03-19T10:55:02;100946.81;;;10.80;100.00
55610;BME280;41486;52.502;13.486;2023-03-19T10:57:32;100943.19;;;10.94;100.00
55610;BME280;41486;52.502;13.486;2023-03-19T11:00:04;100941.09;;;11.10;100.00
55610;BME280;41486;52.502;13.486;2023-03-19T11:02:35;100941.44;;;11.41;100.00
55610;BME280;41486;52.502;13.486;2023-03-19T11:05:17;100939.03;;;11.38;100.00
55610;BME280;41486;52.502;13.486;2023-03-19T11:07:49;100938.69;;;11.43;100.00
55610;BME280;41486;52.502;13.486;2023-03-19T11:10:19;100939.72;;;11.64;100.00
55610;BME280;41486;52.502;13.486;2023-03-19T11:12:52;100943.91;;;11.78;100.00
55610;BME280;41486;52.502;13.486;2023-03-19T11:15:27;100939.97;;;11.73;100.00
55610;BME280;41486;52.502;13.486;2023-03-19T11:17:58;100944.28;;;11.85;100.00
55610;BME280;41486;52.502;13.486;2023-03-19T11:20:29;100936.06;;;12.01;100.00
55610;BME280;41486;52.502;13.486;2023-03-19T11:22:58;100935.59;;;12.07;100.00
55610;BME280;41486;52.502;13.486;2023-03-19T11:25:35;100936.66;;;12.16;100.00
55610;BME280;41486;52.502;13.486;2023-03-19T11:28:06;100943.13;;;12.35;100.00
55610;BME280;41486;52.502;13.486;2023-03-19T11:30:44;100942.75;;;12.28;100.00
55610;BME280;41486;52.502;13.486;2023-03-19T11:33:29;100937.09;;;12.55;100.00
55610;BME280;41486;52.502;13.486;2023-03-19T11:36:08;100936.19;;;12.77;100.00
55610;BME280;41486;52.502;13.486;2023-03-19T11:38:48;100936.72;;;12.60;100.00
55610;BME280;41486;52.502;13.486;2023-03-19T11:41:28;100935.25;;;12.67;100.00
55610;BME280;41486;52.502;13.486;2023-03-19T11:44:04;100932.88;;;12.64;100.00
55610;BME280;41486;52.502;13.486;2023-03-19T11:46:40;100930.09;;;12.77;100.00
55610;BME280;41486;52.502;13.486;2023-03-19T11:49:19;100936.84;;;13.02;100.00
55610;BME280;41486;52.502;13.486;2023-03-19T11:51:57;100925.53;;;13.12;100.00
55610;BME280;41486;52.502;13.486;2023-03-19T11:54:39;100933.47;;;13.00;100.00
55610;BME280;41486;52.502;13.486;2023-03-19T11:57:16;100933.69;;;13.08;100.00
55610;BME280;41486;52.502;13.486;2023-03-19T11:59:59;100935.53;;;12.97;100.00
55610;BME280;41486;52.502;13.486;2023-03-19T12:03:06;100932.81;;;12.87;100.00
55610;BME280;41486;52.502;13.486;2023-03-19T12:05:50;100922.88;;;13.12;100.00
55610;BME280;41486;52.502;13.486;2023-03-19T12:08:30;100917.22;;;12.84;100.00
55610;BME280;41486;52.502;13.486;2023-03-19T12:11:15;100925.72;;;12.87;100.00
55610;BME280;41486;52.502;13.486;2023-03-19T12:16:58;100928.47;;;12.97;100.00
55610;BME280;41486;52.502;13.486;2023-03-19T12:19:53;100923.94;;;12.88;100.00
55610;BME280;41486;52.502;13.486;2023-03-19T12:22:36;100924.63;;;12.90;100.00
55610;BME280;41486;52.502;13.486;2023-03-19T12:25:28;100922.47;;;12.95;100.00
55610;BME280;41486;52.502;13.486;2023-03-19T12:28:06;100921.13;;;13.01;100.00
55610;BME280;41486;52.502;13.486;2023-03-19T12:30:40;100919.69;;;13.29;100.00
55610;BME280;41486;52.502;13.486;2023-03-19T12:33:27;100921.59;;;13.27;100.00
55610;BME280;41486;52.502;13.486;2023-03-19T12:36:06;100927.03;;;13.68;100.00
55610;BME280;41486;52.502;13.486;2023-03-19T12:38:38;100916.38;;;13.37;100.00
55610;BME280;41486;52.502;13.486;2023-03-19T12:41:09;100918.41;;;13.12;100.00
55610;BME280;41486;52.502;13.486;2023-03-19T12:43:45;100918.09;;;13.26;100.00
55610;BME280;41486;52.502;13.486;2023-03-19T12:46:23;100914.69;;;13.36;100.00
55610;BME280;41486;52.502;13.486;2023-03-19T12:48:57;100918.66;;;13.63;100.00
55610;BME280;41486;52.502;13.486;2023-03-19T12:51:34;100913.44;;;13.51;100.00
55610;BME280;41486;52.502;13.486;2023-03-19T12:54:05;100913.56;;;13.71;100.00
55610;BME280;41486;52.502;13.486;2023-03-19T12:56:40;100916.09;;;14.64;100.00
55610;BME280;41486;52.502;13.486;2023-03-19T12:59:21;100910.63;;;14.56;99.50
55610;BME280;41486;52.502;13.486;2023-03-19T13:01:56;100905.72;;;14.31;100.00
55610;BME280;41486;52.502;13.486;2023-03-19T13:04:29;100909.00;;;14.14;100.00
55610;BME280;41486;52.502;13.486;2023-03-19T13:07:04;100910.78;;;14.64;100.00
55610;BME280;41486;52.502;13.486;2023-03-19T13:09:37;100911.66;;;15.33;97.18